sensor_id;sensor_type;location;lat;lon;timestamp;pressure;altitude;pressure_sealevel;temperature
72278;BMP280;61204;49.980;8.358;2023-07-31T00:00:50;100401.56;;;17.01
72278;BMP280;61204;49.980;8.358;2023-07-31T00:03:16;100406.03;;;17.08
72278;BMP280;61204;49.980;8.358;2023-07-31T00:05:41;100400.78;;;17.16
72278;BMP280;61204;49.980;8.358;2023-07-31T00:08:07;100407.00;;;17.14
72278;BMP280;61204;49.980;8.358;2023-07-31T00:10:33;100406.34;;;17.16
72278;BMP280;61204;49.980;8.358;2023-07-31T00:12:58;100405.09;;;17.19
72278;BMP280;61204;49.980;8.358;2023-07-31T00:15:24;100415.84;;;17.46
72278;BMP280;61204;49.980;8.358;2023-07-31T00:17:50;100424.25;;;17.66
72278;BMP280;61204;49.980;8.358;2023-07-31T00:20:16;100421.91;;;17.96
72278;BMP280;61204;49.980;8.358;2023-07-31T00:22:41;100407.53;;;18.02
72278;BMP280;61204;49.980;8.358;2023-07-31T00:25:07;100415.44;;;18.09
72278;BMP280;61204;49.980;8.358;2023-07-31T00:27:35;100419.84;;;18.17
72278;BMP280;61204;49.980;8.358;2023-07-31T00:30:00;100410.69;;;18.12
72278;BMP280;61204;49.980;8.358;2023-07-31T00:32:26;100417.84;;;18.19
72278;BMP280;61204;49.980;8.358;2023-07-31T00:34:54;100410.09;;;18.16
72278;BMP280;61204;49.980;8.358;2023-07-31T00:37:19;100412.09;;;18.13
72278;BMP280;61204;49.980;8.358;2023-07-31T00:39:45;100411.53;;;18.17
72278;BMP280;61204;49.980;8.358;2023-07-31T00:42:13;100413.19;;;18.24
72278;BMP280;61204;49.980;8.358;2023-07-31T00:44:38;100405.13;;;18.32
72278;BMP280;61204;49.980;8.358;2023-07-31T00:47:04;100403.34;;;18.21
72278;BMP280;61204;49.980;8.358;2023-07-31T00:49:30;100414.81;;;18.31
72278;BMP280;61204;49.980;8.358;2023-07-31T00:51:56;100416.38;;;18.36
72278;BMP280;61204;49.980;8.358;2023-07-31T00:54:23;100407.69;;;18.26
72278;BMP280;61204;49.980;8.358;2023-07-31T00:56:50;100411.31;;;18.30
72278;BMP280;61204;49.980;8.358;2023-07-31T00:59:18;100418.19;;;18.29
72278;BMP280;61204;49.980;8.358;2023-07-31T01:01:46;100405.34;;;18.38
72278;BMP280;61204;49.980;8.358;2023-07-31T01:04:12;100412.59;;;18.27
72278;BMP280;61204;49.980;8.358;2023-07-31T01:12:23;100403.91;;;18.17
72278;BMP280;61204;49.980;8.358;2023-07-31T01:15:05;100417.16;;;18.19
72278;BMP280;61204;49.980;8.358;2023-07-31T01:17:37;100410.69;;;18.12
72278;BMP280;61204;49.980;8.358;2023-07-31T01:20:07;100405.19;;;18.14
72278;BMP280;61204;49.980;8.358;2023-07-31T01:26:23;100406.53;;;18.33
72278;BMP280;61204;49.980;8.358;2023-07-31T01:31:55;100414.09;;;18.30
72278;BMP280;61204;49.980;8.358;2023-07-31T01:34:26;100408.69;;;18.34
72278;BMP280;61204;49.980;8.358;2023-07-31T01:36:54;100403.69;;;18.31
72278;BMP280;61204;49.980;8.358;2023-07-31T01:39:22;100402.34;;;18.32
72278;BMP280;61204;49.980;8.358;2023-07-31T01:41:47;100385.81;;;18.36
72278;BMP280;61204;49.980;8.358;2023-07-31T01:44:13;100384.19;;;18.29
72278;BMP280;61204;49.980;8.358;2023-07-31T01:46:38;100388.16;;;18.43
72278;BMP280;61204;49.980;8.358;2023-07-31T01:49:05;100377.22;;;18.48
72278;BMP280;61204;49.980;8.358;2023-07-31T01:51:31;100382.69;;;18.46
72278;BMP280;61204;49.980;8.358;2023-07-31T01:54:00;100373.16;;;18.51
72278;BMP280;61204;49.980;8.358;2023-07-31T01:56:26;100365.72;;;18.57
72278;BMP280;61204;49.980;8.358;2023-07-31T01:58:54;100368.19;;;18.47
72278;BMP280;61204;49.980;8.358;2023-07-31T02:01:20;100366.38;;;18.56
72278;BMP280;61204;49.980;8.358;2023-07-31T02:03:45;100371.47;;;18.63
72278;BMP280;61204;49.980;8.358;2023-07-31T02:06:11;100364.53;;;18.84
72278;BMP280;61204;49.980;8.358;2023-07-31T02:08:37;100370.72;;;18.83
72278;BMP280;61204;49.980;8.358;2023-07-31T02:11:05;100365.75;;;18.79
72278;BMP280;61204;49.980;8.358;2023-07-31T02:13:32;100360.47;;;18.87
72278;BMP280;61204;49.980;8.358;2023-07-31T02:15:58;100361.59;;;18.80
72278;BMP280;61204;49.980;8.358;2023-07-31T02:18:23;100363.84;;;18.86
72278;BMP280;61204;49.980;8.358;2023-07-31T02:20:52;100358.88;;;18.82
72278;BMP280;61204;49.980;8.358;2023-07-31T02:23:19;100351.53;;;18.91
72278;BMP280;61204;49.980;8.358;2023-07-31T02:25:45;100354.13;;;18.85
72278;BMP280;61204;49.980;8.358;2023-07-31T02:28:11;100349.34;;;18.87
72278;BMP280;61204;49.980;8.358;2023-07-31T02:30:36;100346.34;;;18.81
72278;BMP280;61204;49.980;8.358;2023-07-31T02:33:04;100340.06;;;18.79
72278;BMP280;61204;49.980;8.358;2023-07-31T02:35:30;100349.97;;;18.86
72278;BMP280;61204;49.980;8.358;2023-07-31T02:37:56;100345.84;;;18.87
72278;BMP280;61204;49.980;8.358;2023-07-31T02:40:21;100348.75;;;18.91
72278;BMP280;61204;49.980;8.358;2023-07-31T02:42:48;100336.94;;;18.90
72278;BMP280;61204;49.980;8.358;2023-07-31T02:45:14;100352.25;;;18.91
72278;BMP280;61204;49.980;8.358;2023-07-31T02:47:39;100367.22;;;18.82
72278;BMP280;61204;49.980;8.358;2023-07-31T02:50:05;100358.31;;;18.86
72278;BMP280;61204;49.980;8.358;2023-07-31T02:52:31;100374.16;;;19.03
72278;BMP280;61204;49.980;8.358;2023-07-31T02:54:57;100374.34;;;18.87
72278;BMP280;61204;49.980;8.358;2023-07-31T02:57:23;100368.03;;;18.85
72278;BMP280;61204;49.980;8.358;2023-07-31T02:59:49;100370.59;;;18.79
72278;BMP280;61204;49.980;8.358;2023-07-31T03:02:14;100369.41;;;18.86
72278;BMP280;61204;49.980;8.358;2023-07-31T03:04:40;100376.59;;;18.93
72278;BMP280;61204;49.980;8.358;2023-07-31T03:07:06;100361.03;;;18.84
72278;BMP280;61204;49.980;8.358;2023-07-31T03:09:31;100368.56;;;18.81
72278;BMP280;61204;49.980;8.358;2023-07-31T03:11:59;100366.59;;;18.84
72278;BMP280;61204;49.980;8.358;2023-07-31T03:14:25;100365.66;;;18.77
72278;BMP280;61204;49.980;8.358;2023-07-31T03:16:52;100369.28;;;18.82
72278;BMP280;61204;49.980;8.358;2023-07-31T03:19:17;100372.19;;;18.86
72278;BMP280;61204;49.980;8.358;2023-07-31T03:21:43;100364.19;;;18.74
72278;BMP280;61204;49.980;8.358;2023-07-31T03:24:09;100358.75;;;18.78
72278;BMP280;61204;49.980;8.358;2023-07-31T03:26:34;100365.75;;;18.79
72278;BMP280;61204;49.980;8.358;2023-07-31T03:29:03;100355.16;;;18.73
72278;BMP280;61204;49.980;8.358;2023-07-31T03:31:29;100360.78;;;18.76
72278;BMP280;61204;49.980;8.358;2023-07-31T03:33:54;100363.47;;;18.73
72278;BMP280;61204;49.980;8.358;2023-07-31T03:36:20;100359.03;;;18.64
72278;BMP280;61204;49.980;8.358;2023-07-31T03:38:46;100364.88;;;18.53
72278;BMP280;61204;49.980;8.358;2023-07-31T03:41:14;100367.66;;;18.53
72278;BMP280;61204;49.980;8.358;2023-07-31T03:43:39;100367.59;;;18.51
72278;BMP280;61204;49.980;8.358;2023-07-31T03:46:05;100368.25;;;18.49
72278;BMP280;61204;49.980;8.358;2023-07-31T03:48:30;100365.25;;;18.43
72278;BMP280;61204;49.980;8.358;2023-07-31T03:50:58;100364.13;;;18.30
72278;BMP280;61204;49.980;8.358;2023-07-31T03:53:24;100358.47;;;18.26
72278;BMP280;61204;49.980;8.358;2023-07-31T03:55:49;100362.16;;;18.13
72278;BMP280;61204;49.980;8.358;2023-07-31T03:58:15;100367.84;;;18.17
72278;BMP280;61204;49.980;8.358;2023-07-31T04:00:40;100356.41;;;18.07
72278;BMP280;61204;49.980;8.358;2023-07-31T04:03:06;100356.41;;;18.07
72278;BMP280;61204;49.980;8.358;2023-07-31T04:05:32;100354.09;;;18.01
72278;BMP280;61204;49.980;8.358;2023-07-31T04:07:58;100348.56;;;18.01
72278;BMP280;61204;49.980;8.358;2023-07-31T04:10:23;100351.91;;;17.98
72278;BMP280;61204;49.980;8.358;2023-07-31T04:12:49;100349.78;;;17.96
72278;BMP280;61204;49.980;8.358;2023-07-31T04:15:15;100338.69;;;17.96
72278;BMP280;61204;49.980;8.358;2023-07-31T04:17:40;100335.78;;;17.92
72278;BMP280;61204;49.980;8.358;2023-07-31T04:20:06;100324.31;;;17.82
72278;BMP280;61204;49.980;8.358;2023-07-31T04:22:32;100326.09;;;17.73
72278;BMP280;61204;49.980;8.358;2023-07-31T04:25:00;100326.09;;;17.73
72278;BMP280;61204;49.980;8.358;2023-07-31T04:27:26;100325.34;;;17.73
72278;BMP280;61204;49.980;8.358;2023-07-31T04:29:51;100320.31;;;17.67
72278;BMP280;61204;49.980;8.358;2023-07-31T04:32:17;100316.81;;;17.67
72278;BMP280;61204;49.980;8.358;2023-07-31T04:34:43;100312.66;;;17.66
72278;BMP280;61204;49.980;8.358;2023-07-31T04:37:09;100302.59;;;17.57
72278;BMP280;61204;49.980;8.358;2023-07-31T04:39:34;100308.00;;;17.52
72278;BMP280;61204;49.980;8.358;2023-07-31T04:42:00;100299.53;;;17.48
72278;BMP280;61204;49.980;8.358;2023-07-31T04:44:25;100301.09;;;17.53
72278;BMP280;61204;49.980;8.358;2023-07-31T04:46:51;100300.47;;;17.55
72278;BMP280;61204;49.980;8.358;2023-07-31T04:49:16;100301.56;;;17.66
72278;BMP280;61204;49.980;8.358;2023-07-31T04:51:42;100305.81;;;17.69
72278;BMP280;61204;49.980;8.358;2023-07-31T04:54:08;100320.63;;;17.75
72278;BMP280;61204;49.980;8.358;2023-07-31T04:56:33;100309.03;;;17.81
72278;BMP280;61204;49.980;8.358;2023-07-31T04:58:59;100319.34;;;17.78
72278;BMP280;61204;49.980;8.358;2023-07-31T05:01:25;100319.91;;;17.75
72278;BMP280;61204;49.980;8.358;2023-07-31T05:03:50;100312.94;;;17.74
72278;BMP280;61204;49.980;8.358;2023-07-31T05:06:16;100308.81;;;17.75
72278;BMP280;61204;49.980;8.358;2023-07-31T05:08:45;100313.69;;;17.76
72278;BMP280;61204;49.980;8.358;2023-07-31T05:11:11;100315.75;;;17.76
72278;BMP280;61204;49.980;8.358;2023-07-31T05:13:37;100316.06;;;17.84
72278;BMP280;61204;49.980;8.358;2023-07-31T05:16:03;100318.06;;;17.81
72278;BMP280;61204;49.980;8.358;2023-07-31T05:18:31;100305.25;;;17.92
72278;BMP280;61204;49.980;8.358;2023-07-31T05:20:57;100315.56;;;17.90
72278;BMP280;61204;49.980;8.358;2023-07-31T05:23:22;100319.34;;;17.98
72278;BMP280;61204;49.980;8.358;2023-07-31T05:25:48;100305.88;;;18.10
72278;BMP280;61204;49.980;8.358;2023-07-31T05:28:13;100319.56;;;18.04
72278;BMP280;61204;49.980;8.358;2023-07-31T05:30:41;100316.06;;;18.04
72278;BMP280;61204;49.980;8.358;2023-07-31T05:33:06;100318.03;;;18.01
72278;BMP280;61204;49.980;8.358;2023-07-31T05:35:32;100314.91;;;18.11
72278;BMP280;61204;49.980;8.358;2023-07-31T05:37:58;100314.63;;;18.03
72278;BMP280;61204;49.980;8.358;2023-07-31T05:40:23;100325.88;;;18.07
72278;BMP280;61204;49.980;8.358;2023-07-31T05:42:49;100324.53;;;18.08
72278;BMP280;61204;49.980;8.358;2023-07-31T05:45:14;100317.13;;;18.14
72278;BMP280;61204;49.980;8.358;2023-07-31T05:47:40;100319.47;;;18.22
72278;BMP280;61204;49.980;8.358;2023-07-31T05:50:06;100323.84;;;18.29
72278;BMP280;61204;49.980;8.358;2023-07-31T05:52:32;100311.53;;;18.34
72278;BMP280;61204;49.980;8.358;2023-07-31T05:54:57;100310.53;;;18.67
72278;BMP280;61204;49.980;8.358;2023-07-31T05:57:23;100305.53;;;18.86
72278;BMP280;61204;49.980;8.358;2023-07-31T05:59:48;100302.84;;;18.88
72278;BMP280;61204;49.980;8.358;2023-07-31T06:02:18;100300.25;;;18.94
72278;BMP280;61204;49.980;8.358;2023-07-31T06:04:44;100286.53;;;19.00
72278;BMP280;61204;49.980;8.358;2023-07-31T06:07:09;100291.16;;;19.15
72278;BMP280;61204;49.980;8.358;2023-07-31T06:09:37;100290.66;;;19.23
72278;BMP280;61204;49.980;8.358;2023-07-31T06:12:03;100301.38;;;19.32
72278;BMP280;61204;49.980;8.358;2023-07-31T06:14:29;100300.66;;;19.56
72278;BMP280;61204;49.980;8.358;2023-07-31T06:16:54;100305.81;;;19.67
72278;BMP280;61204;49.980;8.358;2023-07-31T06:19:20;100305.91;;;19.95
72278;BMP280;61204;49.980;8.358;2023-07-31T06:21:45;100303.16;;;20.25
72278;BMP280;61204;49.980;8.358;2023-07-31T06:24:11;100309.53;;;20.30
72278;BMP280;61204;49.980;8.358;2023-07-31T06:26:37;100316.53;;;20.31
72278;BMP280;61204;49.980;8.358;2023-07-31T06:29:02;100312.44;;;20.36
72278;BMP280;61204;49.980;8.358;2023-07-31T06:31:28;100298.63;;;20.40
72278;BMP280;61204;49.980;8.358;2023-07-31T06:33:54;100308.28;;;20.35
72278;BMP280;61204;49.980;8.358;2023-07-31T06:36:19;100307.06;;;20.44
72278;BMP280;61204;49.980;8.358;2023-07-31T06:38:45;100312.53;;;20.40
72278;BMP280;61204;49.980;8.358;2023-07-31T06:41:10;100306.47;;;20.48
72278;BMP280;61204;49.980;8.358;2023-07-31T06:43:37;100300.59;;;20.66
72278;BMP280;61204;49.980;8.358;2023-07-31T06:46:08;100317.47;;;21.04
72278;BMP280;61204;49.980;8.358;2023-07-31T06:48:35;100323.41;;;20.88
72278;BMP280;61204;49.980;8.358;2023-07-31T06:51:04;100315.22;;;20.94
72278;BMP280;61204;49.980;8.358;2023-07-31T06:53:30;100312.34;;;21.24
72278;BMP280;61204;49.980;8.358;2023-07-31T06:55:56;100308.88;;;21.26
72278;BMP280;61204;49.980;8.358;2023-07-31T06:58:21;100310.91;;;20.89
72278;BMP280;61204;49.980;8.358;2023-07-31T07:00:47;100310.28;;;20.63
72278;BMP280;61204;49.980;8.358;2023-07-31T07:03:14;100305.53;;;20.67
72278;BMP280;61204;49.980;8.358;2023-07-31T07:05:40;100309.66;;;20.64
72278;BMP280;61204;49.980;8.358;2023-07-31T07:08:06;100298.63;;;20.70
72278;BMP280;61204;49.980;8.358;2023-07-31T07:10:31;100290.00;;;20.00
72278;BMP280;61204;49.980;8.358;2023-07-31T07:12:57;100300.19;;;20.47
72278;BMP280;61204;49.980;8.358;2023-07-31T07:15:25;100297.66;;;20.57
72278;BMP280;61204;49.980;8.358;2023-07-31T07:17:53;100296.44;;;20.37
72278;BMP280;61204;49.980;8.358;2023-07-31T07:20:19;100286.19;;;20.73
72278;BMP280;61204;49.980;8.358;2023-07-31T07:22:45;100289.56;;;20.70
72278;BMP280;61204;49.980;8.358;2023-07-31T07:25:11;100278.91;;;20.90
72278;BMP280;61204;49.980;8.358;2023-07-31T07:27:37;100273.31;;;21.24
72278;BMP280;61204;49.980;8.358;2023-07-31T07:30:05;100275.78;;;21.44
72278;BMP280;61204;49.980;8.358;2023-07-31T07:32:31;100273.69;;;21.44
72278;BMP280;61204;49.980;8.358;2023-07-31T07:34:57;100267.81;;;21.66
72278;BMP280;61204;49.980;8.358;2023-07-31T07:37:22;100258.56;;;21.96
72278;BMP280;61204;49.980;8.358;2023-07-31T07:39:48;100267.66;;;22.42
72278;BMP280;61204;49.980;8.358;2023-07-31T07:42:14;100270.88;;;22.25
72278;BMP280;61204;49.980;8.358;2023-07-31T07:44:42;100260.34;;;22.19
72278;BMP280;61204;49.980;8.358;2023-07-31T07:47:08;100252.84;;;21.87
72278;BMP280;61204;49.980;8.358;2023-07-31T07:49:34;100258.13;;;21.69
72278;BMP280;61204;49.980;8.358;2023-07-31T07:52:00;100271.66;;;22.29
72278;BMP280;61204;49.980;8.358;2023-07-31T07:54:27;100259.50;;;22.10
72278;BMP280;61204;49.980;8.358;2023-07-31T07:56:52;100265.34;;;22.27
72278;BMP280;61204;49.980;8.358;2023-07-31T07:59:18;100262.75;;;22.41
72278;BMP280;61204;49.980;8.358;2023-07-31T08:01:44;100269.34;;;22.64
72278;BMP280;61204;49.980;8.358;2023-07-31T08:04:09;100266.44;;;22.09
72278;BMP280;61204;49.980;8.358;2023-07-31T08:06:35;100256.09;;;21.76
72278;BMP280;61204;49.980;8.358;2023-07-31T08:09:00;100259.75;;;21.82
72278;BMP280;61204;49.980;8.358;2023-07-31T08:11:31;100264.91;;;21.60
72278;BMP280;61204;49.980;8.358;2023-07-31T08:13:59;100252.22;;;21.53
72278;BMP280;61204;49.980;8.358;2023-07-31T08:16:25;100250.78;;;21.90
72278;BMP280;61204;49.980;8.358;2023-07-31T08:18:51;100231.47;;;21.24
72278;BMP280;61204;49.980;8.358;2023-07-31T08:21:16;100237.00;;;21.58
72278;BMP280;61204;49.980;8.358;2023-07-31T08:23:42;100243.63;;;21.79
72278;BMP280;61204;49.980;8.358;2023-07-31T08:26:07;100245.84;;;21.86
72278;BMP280;61204;49.980;8.358;2023-07-31T08:28:33;100237.66;;;21.99
72278;BMP280;61204;49.980;8.358;2023-07-31T08:31:03;100241.00;;;21.47
72278;BMP280;61204;49.980;8.358;2023-07-31T08:33:29;100238.44;;;21.61
72278;BMP280;61204;49.980;8.358;2023-07-31T08:35:54;100230.22;;;21.69
72278;BMP280;61204;49.980;8.358;2023-07-31T08:38:20;100214.84;;;22.10
72278;BMP280;61204;49.980;8.358;2023-07-31T08:40:46;100228.75;;;22.08
72278;BMP280;61204;49.980;8.358;2023-07-31T08:43:13;100224.53;;;21.63
72278;BMP280;61204;49.980;8.358;2023-07-31T08:45:41;100228.56;;;21.96
72278;BMP280;61204;49.980;8.358;2023-07-31T08:48:08;100224.59;;;21.67
72278;BMP280;61204;49.980;8.358;2023-07-31T08:50:33;100235.47;;;21.51
72278;BMP280;61204;49.980;8.358;2023-07-31T08:53:00;100216.31;;;21.71
72278;BMP280;61204;49.980;8.358;2023-07-31T08:55:27;100226.72;;;22.11
72278;BMP280;61204;49.980;8.358;2023-07-31T08:57:57;100225.03;;;21.51
72278;BMP280;61204;49.980;8.358;2023-07-31T09:00:24;100224.91;;;21.85
72278;BMP280;61204;49.980;8.358;2023-07-31T09:03:01;100219.84;;;21.00
72278;BMP280;61204;49.980;8.358;2023-07-31T09:05:36;100220.22;;;20.84
72278;BMP280;61204;49.980;8.358;2023-07-31T09:08:07;100227.50;;;20.99
72278;BMP280;61204;49.980;8.358;2023-07-31T09:10:40;100222.88;;;21.12
72278;BMP280;61204;49.980;8.358;2023-07-31T09:13:15;100215.19;;;21.10
72278;BMP280;61204;49.980;8.358;2023-07-31T09:15:43;100215.69;;;21.37
72278;BMP280;61204;49.980;8.358;2023-07-31T09:18:12;100196.38;;;21.91
72278;BMP280;61204;49.980;8.358;2023-07-31T09:20:44;100204.09;;;21.93
72278;BMP280;61204;49.980;8.358;2023-07-31T09:23:13;100213.19;;;22.43
72278;BMP280;61204;49.980;8.358;2023-07-31T09:25:43;100202.78;;;22.00
72278;BMP280;61204;49.980;8.358;2023-07-31T09:28:10;100206.81;;;21.88
72278;BMP280;61204;49.980;8.358;2023-07-31T09:30:48;100206.31;;;22.02
72278;BMP280;61204;49.980;8.358;2023-07-31T09:33:17;100174.06;;;21.91
72278;BMP280;61204;49.980;8.358;2023-07-31T09:35:44;100206.31;;;21.60
72278;BMP280;61204;49.980;8.358;2023-07-31T09:38:16;100189.38;;;21.88
72278;BMP280;61204;49.980;8.358;2023-07-31T09:40:46;100197.16;;;21.96
72278;BMP280;61204;49.980;8.358;2023-07-31T09:43:18;100159.78;;;22.15
72278;BMP280;61204;49.980;8.358;2023-07-31T09:45:56;100186.06;;;22.00
72278;BMP280;61204;49.980;8.358;2023-07-31T09:48:23;100182.50;;;21.95
72278;BMP280;61204;49.980;8.358;2023-07-31T09:50:52;100167.56;;;22.23
72278;BMP280;61204;49.980;8.358;2023-07-31T09:53:28;100166.91;;;22.28
72278;BMP280;61204;49.980;8.358;2023-07-31T09:55:55;100164.41;;;22.50
72278;BMP280;61204;49.980;8.358;2023-07-31T09:58:25;100168.41;;;22.33
72278;BMP280;61204;49.980;8.358;2023-07-31T10:00:57;100168.69;;;22.56
72278;BMP280;61204;49.980;8.358;2023-07-31T10:03:24;100163.31;;;22.78
72278;BMP280;61204;49.980;8.358;2023-07-31T10:05:53;100164.72;;;22.77
72278;BMP280;61204;49.980;8.358;2023-07-31T10:08:24;100159.63;;;22.59
72278;BMP280;61204;49.980;8.358;2023-07-31T10:10:58;100127.31;;;22.44
72278;BMP280;61204;49.980;8.358;2023-07-31T10:13:27;100142.38;;;22.77
72278;BMP280;61204;49.980;8.358;2023-07-31T10:15:54;100153.13;;;23.03
72278;BMP280;61204;49.980;8.358;2023-07-31T10:18:27;100141.94;;;23.03
72278;BMP280;61204;49.980;8.358;2023-07-31T10:20:54;100144.72;;;23.01
72278;BMP280;61204;49.980;8.358;2023-07-31T10:23:22;100142.88;;;23.26
72278;BMP280;61204;49.980;8.358;2023-07-31T10:25:53;100132.09;;;22.96
72278;BMP280;61204;49.980;8.358;2023-07-31T10:28:20;100133.03;;;23.21
72278;BMP280;61204;49.980;8.358;2023-07-31T10:30:46;100143.50;;;23.20
72278;BMP280;61204;49.980;8.358;2023-07-31T10:33:15;100145.72;;;23.38
72278;BMP280;61204;49.980;8.358;2023-07-31T10:35:41;100154.56;;;23.06
72278;BMP280;61204;49.980;8.358;2023-07-31T10:38:11;100125.59;;;22.75
72278;BMP280;61204;49.980;8.358;2023-07-31T10:40:38;100132.78;;;22.96
72278;BMP280;61204;49.980;8.358;2023-07-31T10:43:05;100146.09;;;23.00
72278;BMP280;61204;49.980;8.358;2023-07-31T10:45:37;100145.28;;;22.87
72278;BMP280;61204;49.980;8.358;2023-07-31T10:48:06;100147.50;;;22.99
72278;BMP280;61204;49.980;8.358;2023-07-31T10:50:46;100124.50;;;22.44
72278;BMP280;61204;49.980;8.358;2023-07-31T10:55:51;100130.22;;;23.23
72278;BMP280;61204;49.980;8.358;2023-07-31T10:58:19;100113.56;;;23.33
72278;BMP280;61204;49.980;8.358;2023-07-31T11:00:46;100118.63;;;23.61
72278;BMP280;61204;49.980;8.358;2023-07-31T11:03:19;100117.34;;;23.74
72278;BMP280;61204;49.980;8.358;2023-07-31T11:06:00;100124.78;;;23.39
72278;BMP280;61204;49.980;8.358;2023-07-31T11:08:35;100113.94;;;23.88
72278;BMP280;61204;49.980;8.358;2023-07-31T11:11:11;100112.97;;;23.53
72278;BMP280;61204;49.980;8.358;2023-07-31T11:16:22;100099.47;;;23.23
72278;BMP280;61204;49.980;8.358;2023-07-31T11:18:53;100116.41;;;23.39
72278;BMP280;61204;49.980;8.358;2023-07-31T11:21:22;100111.75;;;23.76
72278;BMP280;61204;49.980;8.358;2023-07-31T11:23:51;100101.25;;;23.72
72278;BMP280;61204;49.980;8.358;2023-07-31T11:26:23;100106.81;;;23.66
72278;BMP280;61204;49.980;8.358;2023-07-31T11:28:50;100113.72;;;23.55
72278;BMP280;61204;49.980;8.358;2023-07-31T11:31:18;100092.59;;;23.38
72278;BMP280;61204;49.980;8.358;2023-07-31T11:33:47;100103.63;;;23.20
72278;BMP280;61204;49.980;8.358;2023-07-31T11:36:19;100101.59;;;23.26
72278;BMP280;61204;49.980;8.358;2023-07-31T11:38:46;100096.16;;;23.48
72278;BMP280;61204;49.980;8.358;2023-07-31T11:41:16;100092.50;;;23.24
72278;BMP280;61204;49.980;8.358;2023-07-31T11:43:42;100100.25;;;23.29
72278;BMP280;61204;49.980;8.358;2023-07-31T11:46:09;100087.25;;;23.70
72278;BMP280;61204;49.980;8.358;2023-07-31T11:48:36;100094.88;;;23.64
72278;BMP280;61204;49.980;8.358;2023-07-31T11:51:09;100086.06;;;24.14
72278;BMP280;61204;49.980;8.358;2023-07-31T11:53:43;100092.31;;;24.04
72278;BMP280;61204;49.980;8.358;2023-07-31T11:56:36;100077.56;;;23.98
72278;BMP280;61204;49.980;8.358;2023-07-31T11:59:02;100089.59;;;24.29
72278;BMP280;61204;49.980;8.358;2023-07-31T12:01:30;100086.78;;;24.29
72278;BMP280;61204;49.980;8.358;2023-07-31T12:03:59;100086.81;;;24.27
72278;BMP280;61204;49.980;8.358;2023-07-31T12:06:35;100086.19;;;24.59
72278;BMP280;61204;49.980;8.358;2023-07-31T12:09:04;100067.25;;;24.49
72278;BMP280;61204;49.980;8.358;2023-07-31T12:11:30;100075.56;;;24.19
72278;BMP280;61204;49.980;8.358;2023-07-31T12:13:56;100050.16;;;23.72
72278;BMP280;61204;49.980;8.358;2023-07-31T12:16:26;100055.00;;;23.61
72278;BMP280;61204;49.980;8.358;2023-07-31T12:18:52;100062.59;;;23.42
72278;BMP280;61204;49.980;8.358;2023-07-31T12:21:19;100063.91;;;23.31
72278;BMP280;61204;49.980;8.358;2023-07-31T12:23:45;100052.88;;;23.56
72278;BMP280;61204;49.980;8.358;2023-07-31T12:26:13;100047.88;;;23.42
72278;BMP280;61204;49.980;8.358;2023-07-31T12:28:43;100045.22;;;23.68
72278;BMP280;61204;49.980;8.358;2023-07-31T12:31:15;100044.47;;;23.56
72278;BMP280;61204;49.980;8.358;2023-07-31T12:33:43;100045.31;;;23.87
72278;BMP280;61204;49.980;8.358;2023-07-31T12:36:12;100034.13;;;23.89
72278;BMP280;61204;49.980;8.358;2023-07-31T12:38:44;100023.72;;;24.11
72278;BMP280;61204;49.980;8.358;2023-07-31T12:41:10;100004.91;;;24.34
72278;BMP280;61204;49.980;8.358;2023-07-31T12:43:39;100019.66;;;24.86
72278;BMP280;61204;49.980;8.358;2023-07-31T12:46:06;100013.31;;;25.13
72278;BMP280;61204;49.980;8.358;2023-07-31T12:48:34;100008.34;;;25.30
72278;BMP280;61204;49.980;8.358;2023-07-31T12:51:00;100018.22;;;24.93
72278;BMP280;61204;49.980;8.358;2023-07-31T12:53:28;100001.38;;;25.25
72278;BMP280;61204;49.980;8.358;2023-07-31T12:55:55;100007.72;;;25.01
72278;BMP280;61204;49.980;8.358;2023-07-31T12:58:22;99997.22;;;24.94
72278;BMP280;61204;49.980;8.358;2023-07-31T13:00:48;100014.03;;;24.84
72278;BMP280;61204;49.980;8.358;2023-07-31T13:03:13;100003.53;;;24.94
72278;BMP280;61204;49.980;8.358;2023-07-31T13:05:39;100007.00;;;24.93
72278;BMP280;61204;49.980;8.358;2023-07-31T13:08:05;100002.06;;;25.18
72278;BMP280;61204;49.980;8.358;2023-07-31T13:10:30;99997.88;;;25.23
72278;BMP280;61204;49.980;8.358;2023-07-31T13:12:56;99999.34;;;24.67
72278;BMP280;61204;49.980;8.358;2023-07-31T13:15:22;99995.81;;;24.62
72278;BMP280;61204;49.980;8.358;2023-07-31T13:17:48;99978.97;;;24.24
72278;BMP280;61204;49.980;8.358;2023-07-31T13:20:13;99985.25;;;24.26
72278;BMP280;61204;49.980;8.358;2023-07-31T13:22:41;99963.56;;;24.53
72278;BMP280;61204;49.980;8.358;2023-07-31T13:25:07;99981.72;;;24.05
72278;BMP280;61204;49.980;8.358;2023-07-31T13:27:38;99990.84;;;24.20
72278;BMP280;61204;49.980;8.358;2023-07-31T13:30:04;99997.88;;;24.33
72278;BMP280;61204;49.980;8.358;2023-07-31T13:32:32;100009.00;;;23.99
72278;BMP280;61204;49.980;8.358;2023-07-31T13:35:07;100016.69;;;24.02
72278;BMP280;61204;49.980;8.358;2023-07-31T13:37:35;100008.25;;;23.88
72278;BMP280;61204;49.980;8.358;2023-07-31T13:40:00;100010.31;;;23.77
72278;BMP280;61204;49.980;8.358;2023-07-31T13:42:30;100014.66;;;24.17
72278;BMP280;61204;49.980;8.358;2023-07-31T13:44:56;100014.56;;;23.93
72278;BMP280;61204;49.980;8.358;2023-07-31T13:47:22;99999.84;;;23.84
72278;BMP280;61204;49.980;8.358;2023-07-31T13:49:47;100002.00;;;23.96
72278;BMP280;61204;49.980;8.358;2023-07-31T13:52:13;99997.81;;;24.21
72278;BMP280;61204;49.980;8.358;2023-07-31T13:54:38;100012.56;;;24.32
72278;BMP280;61204;49.980;8.358;2023-07-31T13:57:04;100008.78;;;23.50
72278;BMP280;61204;49.980;8.358;2023-07-31T13:59:30;99999.75;;;23.62
72278;BMP280;61204;49.980;8.358;2023-07-31T14:01:56;100007.38;;;23.53
72278;BMP280;61204;49.980;8.358;2023-07-31T14:04:21;99995.44;;;23.48
72278;BMP280;61204;49.980;8.358;2023-07-31T14:06:47;100007.94;;;23.27
72278;BMP280;61204;49.980;8.358;2023-07-31T14:09:15;100007.81;;;23.09
72278;BMP280;61204;49.980;8.358;2023-07-31T14:11:42;99996.00;;;23.23
72278;BMP280;61204;49.980;8.358;2023-07-31T14:14:10;100002.03;;;22.87